Wednesday, August 20, 2014
06:57 UTC
  |  Log In   |  Register Free
Airport Search:

Page Field Airport
(KFMY)

FAA data valid effective July 24, 2014 until September 18, 2014 (unless otherwise noted).

 
 
 
 
 
 
 
 
 
 
 
 
 
 

Current Aviation Weather for Page Field Airport (KFMY)

The most recent METAR observation for KFMY was updated at: 1753 UTC
METAR Summary (Translated METAR)
KFMY
281753Z 25009KT 10SM BKN100 29/25 A3007 RMK AO2 RAB03E23 TSE03 SLP184 P0000 60030 T02940250 10300 20256 58008
KRSW
(6.5 nm SE from KFMY)
281853Z 25009KT 10SM SCT110 31/23 A3006 RMK AO2 SLP178 T03060233
TAF Summary (Translated TAF)
KFMY
200520Z 2006/2106 VRB03KT P6SM SCT250 FM201600 31007KT P6SM VCTS SCT040CB SCT150 FM210100 VRB03KT P6SM FEW050 FEW250
KRSW
(6.5 nm SE from KFMY)
200520Z 2006/2106 VRB03KT P6SM SCT250 FM201600 32007KT P6SM VCTS SCT040CB SCT150 FM210100 VRB03KT P6SM FEW050 FEW250
  Airport Weather Conditions for KFMY

 Current Weather at FMY
84° F
Fair
Northwest winds at 4.6 mph
FMY NOAA Radar

Pressure: 30.02 in
Humidity: 77%
Wind: Northwest at 4.6 MPH (4 KT)
Dew Point: 75.9°F
Visibility: 10.00 mi


Airport Weather Forecast for KFMY

Translated METAR and TAF for KFMY
Translated METAR for KFMY (0651 UTC 20 August 2014)
found at http://aviationweather.gov/adds/metars/
 
METAR text: KFMY 200553Z AUTO 00000KT 10SM CLR 28/24 A3001 RMK AO2 SLP163 T02830244 10311 20283 58006
Conditions at: KFMY (FORT MYERS , FL, US) observed 0553 UTC 20 August 2014
Temperature: 28.3°C (83°F)
Dewpoint: 24.4°C (76°F) [RH = 79%]
Pressure (altimeter): 30.01 inches Hg (1016.3 mb)
[Sea-level pressure: 1016.3 mb]
Winds: calm
Visibility: 10 or more miles (16+ km)
Ceiling: at least 12,000 feet AGL
Clouds: sky clear below 12,000 feet AGL
Weather: automated observation with no human augmentation;
there may or may not be significant weather present at this time
Translated TAF for KFMY
Forecast for: KFMY (FORT MYERS , FL, US)
TAF Text: KFMY 200520Z 2006/2106 VRB03KT P6SM SCT250
Forecast period: 0600 to 1600 UTC 20 August 2014
Forecast type: FROM: standard forecast or significant change
Winds: variable direction winds at 3 MPH (3 knots; 1.6 m/s)
Visibility: 6 or more miles (10+ km)
Clouds: scattered clouds at 25000 feet AGL
Weather: no significant weather forecast for this period
TAF Text: FM201600 31007KT P6SM VCTS SCT040CB SCT150
Forecast period: 1600 UTC 20 August 2014 to 0100 UTC 21 August 2014
Forecast type: FROM: standard forecast or significant change
Winds: from the NW (310 degrees) at 8 MPH (7 knots; 3.6 m/s)
Visibility: 6 or more miles (10+ km)
Clouds: scattered clouds at 4000 feet AGL
scattered clouds at 15000 feet AGL
Weather: VCTS  (thunderstorm in vicinity)
TAF Text: FM210100 VRB03KT P6SM FEW050 FEW250
Forecast period: 0100 to 0600 UTC 21 August 2014
Forecast type: FROM: standard forecast or significant change
Winds: variable direction winds at 3 MPH (3 knots; 1.6 m/s)
Visibility: 6 or more miles (10+ km)
Clouds: few clouds at 5000 feet AGL
few clouds at 25000 feet AGL
Weather: no significant weather forecast for this period

Find All Airport Services Find A Hotel Find A Rental Car Find A Golf Course Find A Restaurant $100 Hamburger



FBO's on the Field
FBO Company Facility Photos Services Transportation Aviation Fuel Prices: Prices include tax
Catering Weather Repair Courtesy Rental Type 100LL JetA JetA+ MOGAS 8087
 
Base Operations at Page Field

Currently rated 4.8 by 2 people
FS:Avfuel
Last Updated: Aug-19
Login to update fuel prices
SS:
Contact Base Operations at Page FieldMore FBO Information
 
Add another FBO Facility Photos Catering Weather Repair Courtesy Rental Type 100LL JetA JetA+ MOGAS 8087
Services Transportation Aviation Fuel Prices: Prices include tax


GlobalAir.com Airport Resource Center model-print
model-print
model-print
model-print